createdAt,value
2022-09-02T00:01:44.571Z,5.18
2022-09-02T00:04:15.842Z,4.80
2022-09-02T00:06:45.749Z,4.50
2022-09-02T00:09:15.643Z,4.68
2022-09-02T00:11:46.484Z,4.10
2022-09-02T00:14:19.331Z,4.40
2022-09-02T00:16:51.112Z,4.00
2022-09-02T00:19:20.287Z,4.55
2022-09-02T00:21:48.354Z,4.15
2022-09-02T00:24:19.214Z,4.50
2022-09-02T00:26:48.180Z,4.10
2022-09-02T00:29:18.622Z,4.38
2022-09-02T00:31:48.326Z,4.70
2022-09-02T00:34:16.541Z,4.50
2022-09-02T00:36:44.824Z,4.60
2022-09-02T00:39:15.130Z,4.55
2022-09-02T00:41:45.011Z,4.70
2022-09-02T00:44:16.082Z,5.30
2022-09-02T00:46:45.732Z,5.30
2022-09-02T00:49:18.992Z,5.10
2022-09-02T00:51:51.060Z,4.95
2022-09-02T00:54:22.910Z,5.30
2022-09-02T00:56:55.648Z,5.03
2022-09-02T00:59:31.439Z,4.97
2022-09-02T01:02:00.947Z,5.05
2022-09-02T01:04:29.326Z,5.03
2022-09-02T01:06:57.304Z,4.75
2022-09-02T01:09:25.154Z,5.10
2022-09-02T01:11:53.596Z,4.90
2022-09-02T01:14:22.343Z,5.25
2022-09-02T01:16:53.184Z,5.38
2022-09-02T01:19:25.909Z,5.30
2022-09-02T01:21:58.810Z,5.57
2022-09-02T01:24:31.011Z,5.40
2022-09-02T01:27:02.118Z,5.40
2022-09-02T01:29:30.413Z,5.60
2022-09-02T01:31:58.692Z,5.40
2022-09-02T01:34:26.893Z,5.07
2022-09-02T01:36:55.295Z,4.93
2022-09-02T01:39:24.939Z,4.72
2022-09-02T01:41:53.759Z,4.90
2022-09-02T01:44:21.696Z,4.95
2022-09-02T01:46:51.234Z,4.50
2022-09-02T01:49:19.406Z,4.50
2022-09-02T01:51:47.586Z,4.20
2022-09-02T01:54:17.955Z,4.20
2022-09-02T01:56:47.524Z,4.40
2022-09-02T01:59:18.141Z,4.22
2022-09-02T02:01:46.923Z,4.17
2022-09-02T02:04:16.986Z,3.88
2022-09-02T02:06:48.831Z,3.90
2022-09-02T02:09:22.305Z,3.80
2022-09-02T02:11:54.339Z,3.20
2022-09-02T02:14:23.443Z,3.70
2022-09-02T02:16:52.349Z,3.75
2022-09-02T02:19:20.345Z,3.17
2022-09-02T02:21:50.858Z,3.97
2022-09-02T02:24:19.095Z,3.20
2022-09-02T02:26:47.666Z,3.20
2022-09-02T02:29:18.959Z,3.00
2022-09-02T02:31:47.087Z,3.40
2022-09-02T02:34:15.149Z,3.80
2022-09-02T02:36:44.582Z,3.67
2022-09-02T02:39:13.954Z,3.97
2022-09-02T02:41:44.946Z,3.50
2022-09-02T02:44:13.849Z,3.85
2022-09-02T02:46:43.235Z,3.83
2022-09-02T02:49:12.222Z,4.30
2022-09-02T02:51:40.420Z,4.20
2022-09-02T02:54:10.385Z,4.10
2022-09-02T02:56:38.570Z,3.40
2022-09-02T02:59:06.664Z,4.10
2022-09-02T03:01:35.882Z,3.90
2022-09-02T03:04:07.275Z,3.90
2022-09-02T03:06:35.781Z,4.03
2022-09-02T03:09:05.802Z,4.20
2022-09-02T03:11:36.461Z,4.60
2022-09-02T03:14:08.552Z,4.18
2022-09-02T03:16:37.693Z,4.43
2022-09-02T03:19:07.308Z,4.30
2022-09-02T03:21:39.274Z,4.60
2022-09-02T03:24:10.094Z,4.50
2022-09-02T03:26:39.649Z,4.40
2022-09-02T03:29:07.680Z,4.37
2022-09-02T03:31:35.934Z,4.60
2022-09-02T03:34:04.664Z,4.35
2022-09-02T03:36:39.753Z,4.47
2022-09-02T03:39:13.115Z,4.20
2022-09-02T03:41:43.658Z,4.25
2022-09-02T03:44:12.474Z,4.35
2022-09-02T03:46:41.955Z,4.32
2022-09-02T03:49:10.164Z,4.70
2022-09-02T03:51:43.553Z,4.32
2022-09-02T03:54:12.358Z,4.13
2022-09-02T03:56:41.624Z,2.60
2022-09-02T03:59:10.370Z,4.13
2022-09-02T04:01:38.407Z,3.55
2022-09-02T04:04:07.111Z,4.70
2022-09-02T04:06:37.726Z,4.70
2022-09-02T04:09:08.295Z,4.78
2022-09-02T04:11:42.628Z,4.60
2022-09-02T04:14:12.262Z,4.27
2022-09-02T04:17:35.469Z,4.47
2022-09-02T04:20:49.758Z,4.45
2022-09-02T04:23:17.867Z,4.05
2022-09-02T04:25:47.915Z,3.80
2022-09-02T04:28:17.877Z,3.30
2022-09-02T04:30:47.321Z,3.20
2022-09-02T04:33:16.076Z,2.75
2022-09-02T04:35:49.280Z,2.75
2022-09-02T04:38:20.890Z,2.78
2022-09-02T04:40:50.380Z,3.53
2022-09-02T04:43:20.261Z,2.78
2022-09-02T04:45:49.062Z,2.30
2022-09-02T04:48:20.923Z,2.92
2022-09-02T04:50:50.131Z,3.77
2022-09-02T04:53:19.265Z,3.40
2022-09-02T04:55:48.235Z,2.50
2022-09-02T04:58:17.982Z,2.80
2022-09-02T05:00:48.982Z,2.75
2022-09-02T05:03:20.175Z,3.28
2022-09-02T05:05:49.260Z,3.40
2022-09-02T05:08:23.733Z,2.80
2022-09-02T05:10:55.467Z,3.30
2022-09-02T05:13:26.057Z,2.43
2022-09-02T05:15:54.813Z,3.23
2022-09-02T05:18:23.577Z,3.05
2022-09-02T05:20:51.855Z,2.60
2022-09-02T05:23:20.526Z,2.80
2022-09-02T05:25:48.469Z,2.35
2022-09-02T05:28:18.212Z,2.60
2022-09-02T05:30:49.263Z,2.60
2022-09-02T05:33:18.361Z,2.65
2022-09-02T05:35:50.007Z,2.90
2022-09-02T05:38:18.840Z,2.63
2022-09-02T05:40:48.672Z,2.90
2022-09-02T05:43:17.014Z,2.83
2022-09-02T05:45:45.014Z,3.50
2022-09-02T05:48:32.914Z,3.70
2022-09-02T05:51:05.682Z,3.33
2022-09-02T05:53:34.863Z,3.67
2022-09-02T05:56:06.127Z,3.30
2022-09-02T05:58:35.510Z,3.60
2022-09-02T06:01:08.966Z,3.38
2022-09-02T06:03:38.747Z,3.13
2022-09-02T06:06:09.075Z,3.45
2022-09-02T06:08:41.261Z,3.13
2022-09-02T06:11:12.050Z,2.90
2022-09-02T06:13:43.327Z,3.50
2022-09-02T06:16:15.472Z,2.97
2022-09-02T06:18:46.587Z,3.00
2022-09-02T06:21:15.248Z,3.10
2022-09-02T06:23:46.963Z,3.33
2022-09-02T06:26:19.000Z,3.47
2022-09-02T06:28:47.462Z,3.08
2022-09-02T06:31:20.034Z,2.65
2022-09-02T06:33:54.191Z,3.20
2022-09-02T06:36:28.292Z,2.95
2022-09-02T06:38:59.728Z,2.60
2022-09-02T06:41:30.829Z,3.00
2022-09-02T06:44:07.108Z,2.55
2022-09-02T06:46:40.366Z,2.90
2022-09-02T06:49:11.773Z,2.70
2022-09-02T06:51:42.916Z,3.07
2022-09-02T06:54:14.214Z,2.50
2022-09-02T06:56:46.012Z,2.70
2022-09-02T06:59:18.917Z,2.90
2022-09-02T07:01:51.569Z,2.70
2022-09-02T07:04:41.568Z,2.70
2022-09-02T07:07:12.072Z,2.77
2022-09-02T07:09:50.678Z,2.50
2022-09-02T07:12:19.848Z,2.63
2022-09-02T07:14:53.295Z,2.53
2022-09-02T07:17:29.538Z,2.20
2022-09-02T07:20:05.881Z,2.30
2022-09-02T07:22:40.430Z,2.47
2022-09-02T07:25:11.593Z,2.15
2022-09-02T07:27:39.794Z,2.30
2022-09-02T07:30:12.212Z,2.22
2022-09-02T07:32:41.746Z,2.60
2022-09-02T07:35:12.767Z,2.20
2022-09-02T07:37:42.156Z,2.00
2022-09-02T07:40:14.413Z,2.05
2022-09-02T07:42:46.021Z,2.20
2022-09-02T07:45:14.371Z,2.17
2022-09-02T07:47:44.152Z,1.98
2022-09-02T07:50:19.535Z,1.90
2022-09-02T07:52:53.695Z,1.70
2022-09-02T07:55:23.155Z,1.77
2022-09-02T07:57:54.504Z,1.90
2022-09-02T08:00:27.428Z,1.80
2022-09-02T08:02:57.412Z,1.45
2022-09-02T08:05:33.236Z,1.80
2022-09-02T08:08:04.815Z,1.80
2022-09-02T08:10:33.842Z,1.63
2022-09-02T08:13:02.255Z,1.60
2022-09-02T08:15:31.335Z,1.67
2022-09-02T08:18:22.344Z,1.52
2022-09-02T08:20:56.530Z,1.63
2022-09-02T08:23:40.217Z,1.60
2022-09-02T08:26:08.491Z,1.60
2022-09-02T08:28:36.678Z,1.70
2022-09-02T08:31:08.525Z,1.58
2022-09-02T08:33:36.751Z,1.73
2022-09-02T08:36:11.105Z,1.45
2022-09-02T08:38:39.445Z,1.60
2022-09-02T08:41:14.854Z,1.40
2022-09-02T08:43:45.244Z,1.70
2022-09-02T08:46:18.261Z,1.37
2022-09-02T08:48:50.801Z,1.63
2022-09-02T08:51:25.164Z,1.42
2022-09-02T08:53:58.936Z,1.45
2022-09-02T08:56:28.293Z,1.60
2022-09-02T08:58:57.346Z,1.30
2022-09-02T09:01:34.577Z,1.58
2022-09-02T09:04:17.656Z,1.30
2022-09-02T09:07:05.349Z,1.30
2022-09-02T09:09:50.491Z,1.50
2022-09-02T09:12:31.305Z,1.20
2022-09-02T09:15:07.493Z,1.40
2022-09-02T09:17:44.367Z,1.37
2022-09-02T09:20:19.832Z,1.38
2022-09-02T09:22:50.860Z,1.10
2022-09-02T09:25:20.095Z,1.30
2022-09-02T09:27:48.367Z,1.37
2022-09-02T09:30:16.363Z,1.33
2022-09-02T09:32:48.217Z,1.30
2022-09-02T09:35:18.773Z,1.20
2022-09-02T09:37:50.318Z,1.27
2022-09-02T09:40:24.399Z,1.20
2022-09-02T09:42:56.897Z,1.10
2022-09-02T09:45:32.377Z,1.10
2022-09-02T09:48:19.061Z,1.10
2022-09-02T09:50:48.706Z,1.00
2022-09-02T09:53:22.243Z,1.03
2022-09-02T09:55:55.534Z,1.00
2022-09-02T09:58:25.410Z,1.10
2022-09-02T10:01:00.424Z,1.07
2022-09-02T10:03:33.013Z,1.00
2022-09-02T10:06:19.473Z,1.08
2022-09-02T10:08:54.720Z,0.95
2022-09-02T10:11:27.080Z,0.93
2022-09-02T10:14:00.120Z,0.90
2022-09-02T10:16:42.459Z,1.10
2022-09-02T10:19:25.048Z,1.27
2022-09-02T10:22:07.128Z,0.98
2022-09-02T10:24:51.672Z,1.10
2022-09-02T10:27:27.348Z,1.20
2022-09-02T10:30:00.216Z,1.08
2022-09-02T10:32:49.321Z,1.00
2022-09-02T10:35:22.787Z,1.30
2022-09-02T10:38:07.234Z,1.50
2022-09-02T10:40:45.147Z,1.35
2022-09-02T10:43:28.187Z,1.15
2022-09-02T10:46:00.615Z,1.40
2022-09-02T10:48:46.651Z,1.20
2022-09-02T10:51:21.913Z,1.05
2022-09-02T10:54:01.070Z,1.17
2022-09-02T10:56:35.580Z,1.00
2022-09-02T10:59:09.183Z,1.02
2022-09-02T11:01:47.941Z,1.00
2022-09-02T11:04:25.118Z,0.93
2022-09-02T11:07:03.539Z,1.10
2022-09-02T11:09:37.584Z,1.20
2022-09-02T11:12:15.844Z,0.90
2022-09-02T11:14:54.789Z,1.10
2022-09-02T11:17:32.154Z,1.08
2022-09-02T11:20:07.894Z,1.10
2022-09-02T11:22:45.988Z,1.00
2022-09-02T11:25:17.270Z,0.90
2022-09-02T11:27:54.011Z,1.00
2022-09-02T11:30:25.497Z,1.07
2022-09-02T11:33:01.109Z,0.90
2022-09-02T11:35:39.825Z,1.00
2022-09-02T11:38:19.408Z,1.17
2022-09-02T11:44:04.828Z,0.90
2022-09-02T11:46:49.162Z,0.90
2022-09-02T11:49:52.636Z,1.00
2022-09-02T11:52:40.798Z,1.00
2022-09-02T11:55:16.582Z,1.00
2022-09-02T11:57:52.486Z,1.15
2022-09-02T12:00:31.904Z,0.88
2022-09-02T12:03:28.393Z,1.00
2022-09-02T12:06:14.300Z,0.90
2022-09-02T12:09:07.660Z,1.10
2022-09-02T12:11:41.820Z,0.90
2022-09-02T12:14:13.716Z,0.82
2022-09-02T12:16:46.530Z,1.00
2022-09-02T12:19:28.443Z,0.80
2022-09-02T12:22:38.552Z,0.93
2022-09-02T12:25:42.322Z,1.10
2022-09-02T12:28:18.903Z,0.90
2022-09-02T12:31:15.869Z,0.90
2022-09-02T12:33:49.349Z,1.00
2022-09-02T12:36:46.839Z,0.95
2022-09-02T12:39:47.204Z,19.13
2022-09-02T12:42:23.781Z,1.93
2022-09-02T12:44:59.822Z,0.80
2022-09-02T12:47:47.503Z,0.90
2022-09-02T12:50:27.740Z,0.93
2022-09-02T12:53:19.229Z,0.83
2022-09-02T12:55:57.082Z,1.00
2022-09-02T12:58:26.089Z,1.10
2022-09-02T13:01:05.573Z,1.00
2022-09-02T13:04:12.993Z,1.85
2022-09-02T13:07:05.253Z,1.10
2022-09-02T13:10:04.523Z,0.80
2022-09-02T13:12:59.008Z,1.10
2022-09-02T13:15:47.258Z,0.93
2022-09-02T13:18:42.178Z,1.23
2022-09-02T13:21:45.381Z,0.77
2022-09-02T13:24:46.932Z,1.30
2022-09-02T13:27:47.670Z,0.98
2022-09-02T13:30:20.840Z,0.90
2022-09-02T13:32:58.504Z,1.02
2022-09-02T13:35:29.529Z,1.00
2022-09-02T13:38:02.665Z,1.27
2022-09-02T13:40:34.593Z,1.08
2022-09-02T13:43:04.716Z,1.00
2022-09-02T13:45:36.139Z,1.10
2022-09-02T13:48:11.428Z,1.00
2022-09-02T13:50:45.239Z,1.00
2022-09-02T13:56:17.235Z,0.97
2022-09-02T13:58:48.937Z,1.00
2022-09-02T14:01:30.082Z,0.95
2022-09-02T14:04:00.133Z,1.10
2022-09-02T14:06:31.508Z,1.20
2022-09-02T14:09:02.591Z,1.23
2022-09-02T14:11:39.447Z,1.10
2022-09-02T14:14:07.737Z,1.00
2022-09-02T14:16:37.755Z,1.20
2022-09-02T14:19:11.753Z,1.30
2022-09-02T14:21:47.110Z,1.10
2022-09-02T14:24:17.553Z,1.02
2022-09-02T14:26:48.767Z,1.33
2022-09-02T14:29:18.990Z,1.00
2022-09-02T14:31:48.168Z,1.50
2022-09-02T14:34:37.436Z,1.63
2022-09-02T14:37:24.077Z,1.27
2022-09-02T14:40:09.030Z,1.20
2022-09-02T14:42:57.518Z,1.08
2022-09-02T14:45:28.141Z,1.10
2022-09-02T14:47:57.925Z,0.95
2022-09-02T14:50:30.460Z,1.00
2022-09-02T14:53:05.068Z,1.10
2022-09-02T14:55:50.100Z,1.30
2022-09-02T14:58:21.081Z,1.00
2022-09-02T15:00:56.346Z,1.20
2022-09-02T15:03:25.188Z,1.58
2022-09-02T15:05:53.918Z,1.00
2022-09-02T15:08:22.250Z,1.00
2022-09-02T15:10:50.751Z,1.47
2022-09-02T15:13:32.373Z,1.10
2022-09-02T15:16:00.860Z,1.00
2022-09-02T15:18:28.956Z,1.30
2022-09-02T15:20:57.516Z,0.88
2022-09-02T15:23:27.183Z,1.20
2022-09-02T15:25:56.435Z,1.10
2022-09-02T15:28:25.720Z,1.10
2022-09-02T15:30:59.317Z,1.17
2022-09-02T15:33:27.501Z,1.30
2022-09-02T15:35:55.739Z,1.35
2022-09-02T15:38:23.850Z,1.00
2022-09-02T15:40:51.734Z,1.17
2022-09-02T15:43:22.633Z,1.02
2022-09-02T15:45:52.017Z,1.30
2022-09-02T15:48:20.045Z,1.58
2022-09-02T15:50:48.001Z,1.20
2022-09-02T15:53:16.480Z,1.20
2022-09-02T15:55:44.425Z,1.10
2022-09-02T15:58:12.527Z,1.23
2022-09-02T16:00:43.912Z,1.10
2022-09-02T16:03:13.446Z,1.10
2022-09-02T16:05:43.256Z,1.00
2022-09-02T16:08:14.185Z,1.10
2022-09-02T16:10:42.183Z,1.10
2022-09-02T16:13:10.124Z,1.17
2022-09-02T16:15:40.489Z,0.80
2022-09-02T16:18:08.549Z,1.13
2022-09-02T16:20:37.893Z,0.80
2022-09-02T16:23:05.837Z,1.23
2022-09-02T16:25:33.740Z,1.00
2022-09-02T16:28:02.002Z,1.20
2022-09-02T16:30:30.388Z,1.10
2022-09-02T16:32:59.561Z,1.30
2022-09-02T16:35:27.653Z,1.10
2022-09-02T16:37:57.495Z,1.03
2022-09-02T16:40:27.924Z,1.10
2022-09-02T16:42:55.896Z,1.10
2022-09-02T16:45:23.738Z,1.00
2022-09-02T16:47:51.622Z,1.00
2022-09-02T16:50:19.981Z,1.10
2022-09-02T16:52:48.041Z,1.20
2022-09-02T16:55:18.781Z,0.90
2022-09-02T16:57:48.966Z,1.20
2022-09-02T17:00:17.959Z,1.30
2022-09-02T17:02:45.882Z,1.20
2022-09-02T17:05:17.811Z,1.30
2022-09-02T17:07:46.962Z,1.20
2022-09-02T17:10:18.992Z,1.30
2022-09-02T17:12:47.061Z,1.10
2022-09-02T17:15:15.307Z,1.30
2022-09-02T17:17:43.545Z,1.27
2022-09-02T17:20:13.176Z,1.42
2022-09-02T17:22:41.404Z,1.08
2022-09-02T17:25:10.184Z,1.10
2022-09-02T17:27:41.100Z,1.00
2022-09-02T17:30:12.404Z,1.10
2022-09-02T17:32:40.643Z,1.20
2022-09-02T17:35:12.746Z,1.37
2022-09-02T17:37:41.180Z,1.20
2022-09-02T17:40:28.720Z,1.20
2022-09-02T17:42:57.966Z,1.20
2022-09-02T17:45:25.992Z,1.30
2022-09-02T17:47:53.936Z,1.13
2022-09-02T17:50:21.805Z,1.08
2022-09-02T17:52:49.949Z,1.00
2022-09-02T17:55:20.297Z,1.17
2022-09-02T17:57:59.785Z,1.30
2022-09-02T18:00:32.491Z,1.30
2022-09-02T18:03:22.327Z,1.30
2022-09-02T18:05:57.342Z,1.20
2022-09-02T18:08:34.963Z,1.10
2022-09-02T18:11:06.694Z,1.40
2022-09-02T18:13:45.168Z,1.13
2022-09-02T18:16:29.578Z,1.55
2022-09-02T18:19:14.137Z,1.50
2022-09-02T18:21:54.118Z,1.40
2022-09-02T18:24:36.051Z,1.30
2022-09-02T18:27:17.030Z,1.43
2022-09-02T18:29:59.929Z,1.20
2022-09-02T18:32:43.306Z,1.47
2022-09-02T18:35:26.909Z,1.20
2022-09-02T18:38:07.697Z,1.45
2022-09-02T18:40:44.247Z,1.35
2022-09-02T18:43:19.581Z,1.30
2022-09-02T18:45:50.094Z,1.70
2022-09-02T18:48:22.553Z,0.90
2022-09-02T18:50:53.699Z,1.00
2022-09-02T18:53:23.791Z,1.20
2022-09-02T18:55:53.881Z,1.33
2022-09-02T18:58:35.174Z,1.50
2022-09-02T19:01:14.950Z,1.33
2022-09-02T19:03:47.023Z,1.70
2022-09-02T19:06:19.932Z,1.80
2022-09-02T19:08:48.073Z,1.77
2022-09-02T19:11:19.265Z,1.60
2022-09-02T19:13:49.802Z,1.60
2022-09-02T19:16:19.659Z,1.45
2022-09-02T19:18:50.756Z,1.38
2022-09-02T19:21:24.768Z,1.30
2022-09-02T19:23:55.484Z,1.40
2022-09-02T19:26:24.753Z,1.30
2022-09-02T19:28:55.502Z,1.30
2022-09-02T19:31:29.790Z,1.45
2022-09-02T19:34:03.195Z,1.50
2022-09-02T19:36:33.877Z,1.10
2022-09-02T19:39:01.748Z,1.38
2022-09-02T19:41:31.696Z,1.40
2022-09-02T19:44:00.301Z,1.27
2022-09-02T19:47:06.967Z,1.50
2022-09-02T19:49:20.053Z,1.30
2022-09-02T19:51:48.561Z,1.00
2022-09-02T19:54:17.882Z,1.10
2022-09-02T19:56:46.209Z,0.95
2022-09-02T19:59:14.231Z,1.10
2022-09-02T20:01:42.212Z,1.13
2022-09-02T20:04:11.608Z,1.10
2022-09-02T20:06:40.967Z,1.48
2022-09-02T20:09:09.021Z,1.13
2022-09-02T20:11:38.652Z,1.40
2022-09-02T20:14:09.302Z,1.30
2022-09-02T20:16:37.262Z,1.40
2022-09-02T20:19:05.289Z,1.50
2022-09-02T20:21:42.077Z,1.50
2022-09-02T20:24:13.664Z,1.70
2022-09-02T20:26:51.062Z,1.80
2022-09-02T20:29:38.618Z,1.70
2022-09-02T20:32:19.674Z,1.70
2022-09-02T20:35:05.501Z,1.50
2022-09-02T20:37:41.533Z,1.40
2022-09-02T20:40:27.045Z,1.48
2022-09-02T20:43:33.491Z,1.80
2022-09-02T20:46:12.068Z,1.75
2022-09-02T20:48:54.383Z,1.50
2022-09-02T20:51:26.645Z,1.88
2022-09-02T20:54:08.134Z,1.70
2022-09-02T20:56:47.289Z,1.70
2022-09-02T20:59:26.766Z,1.42
2022-09-02T21:01:58.686Z,1.70
2022-09-02T21:04:35.911Z,1.38
2022-09-02T21:07:09.455Z,1.40
2022-09-02T21:09:43.334Z,1.40
2022-09-02T21:12:21.689Z,1.60
2022-09-02T21:14:55.804Z,1.80
2022-09-02T21:17:35.498Z,1.30
2022-09-02T21:20:09.865Z,1.73
2022-09-02T21:22:41.641Z,1.30
2022-09-02T21:25:12.851Z,1.40
2022-09-02T21:27:53.072Z,1.50
2022-09-02T21:30:23.087Z,1.50
2022-09-02T21:32:53.117Z,1.25
2022-09-02T21:35:24.219Z,1.25
2022-09-02T21:37:59.289Z,1.10
2022-09-02T21:40:41.399Z,1.13
2022-09-02T21:43:31.025Z,1.17
2022-09-02T21:46:10.342Z,1.05
2022-09-02T21:48:48.009Z,1.30
2022-09-02T21:51:25.607Z,1.40
2022-09-02T21:54:09.044Z,1.10
2022-09-02T21:56:53.110Z,1.30
2022-09-02T21:59:45.933Z,1.20
2022-09-02T22:02:20.676Z,0.90
2022-09-02T22:05:02.112Z,1.23
2022-09-02T22:07:39.076Z,1.00
2022-09-02T22:10:17.791Z,1.00
2022-09-02T22:12:52.609Z,1.10
2022-09-02T22:15:33.982Z,1.20
2022-09-02T22:18:11.943Z,0.90
2022-09-02T22:20:45.177Z,1.20
2022-09-02T22:23:23.586Z,1.20
2022-09-02T22:25:54.076Z,1.40
2022-09-02T22:28:27.123Z,1.48
2022-09-02T22:30:59.946Z,1.27
2022-09-02T22:33:33.969Z,2.38
2022-09-02T22:36:12.001Z,1.63
2022-09-02T22:38:47.037Z,1.20
2022-09-02T22:41:23.795Z,1.73
2022-09-02T22:43:59.332Z,5.18
2022-09-02T22:46:52.680Z,1.85
2022-09-02T22:49:40.496Z,1.60
2022-09-02T22:52:40.527Z,1.20
2022-09-02T22:55:13.259Z,1.50
2022-09-02T22:57:51.996Z,1.40
2022-09-02T23:00:20.724Z,1.52
2022-09-02T23:03:01.840Z,1.70
2022-09-02T23:05:45.043Z,1.73
2022-09-02T23:08:14.553Z,1.40
2022-09-02T23:10:50.137Z,1.30
2022-09-02T23:13:26.202Z,1.27
2022-09-02T23:16:11.880Z,1.20
2022-09-02T23:18:57.085Z,1.30
2022-09-02T23:21:32.885Z,1.50
2022-09-02T23:24:13.296Z,1.30
2022-09-02T23:26:46.253Z,1.30
2022-09-02T23:29:19.860Z,1.30
2022-09-02T23:32:23.469Z,1.50
2022-09-02T23:35:04.234Z,1.45
2022-09-02T23:37:49.494Z,1.60
2022-09-02T23:40:23.835Z,1.60
2022-09-02T23:42:52.078Z,1.50
2022-09-02T23:45:22.705Z,1.48
2022-09-02T23:48:15.797Z,1.60
2022-09-02T23:51:00.153Z,1.80
2022-09-02T23:53:35.043Z,1.60
2022-09-02T23:56:15.785Z,1.70
2022-09-02T23:58:57.482Z,1.30
